Lumberton, North Carolina
Current Conditions -  °F | °C
As of 12:54 PM on Saturday 22 Nov 2014 (Local Time) from KLBT Reporting Station
Clear Clear  
Wind Chill: 13°   Ceiling: Unl
Heat Index: 13°   Visibility: 10mi
Dew Point: -2°   Wind: 0mph
Humidity: 36%   Direction: NA
Pressure: 30.46"   Gusts: NA
Location:  34.62°N, 79.01°W
Report Text: KLBT 221754Z AUTO 00000KT 10SM CLR 13/M02 A3046 RMK AO2 SLP315 T01331017 10139 21039 58035
Loading
Personal Weather Stations






























Interactive Weather Map New forecast layout! Learn more

10-Day Weather Forecast

Advertisements
Track Severe Weather on mobile